createdAt,value
2022-09-13T00:01:52.868Z,22.92
2022-09-13T00:04:18.427Z,22.91
2022-09-13T00:06:43.968Z,22.91
2022-09-13T00:09:09.497Z,22.92
2022-09-13T00:11:35.043Z,22.91
2022-09-13T00:14:00.582Z,22.92
2022-09-13T00:16:28.450Z,22.91
2022-09-13T00:18:54.387Z,22.91
2022-09-13T00:21:20.736Z,22.90
2022-09-13T00:23:46.970Z,22.91
2022-09-13T00:26:13.550Z,22.89
2022-09-13T00:28:39.350Z,22.91
2022-09-13T00:31:05.554Z,22.91
2022-09-13T00:33:31.186Z,22.90
2022-09-13T00:35:56.726Z,22.91
2022-09-13T00:38:22.472Z,22.91
2022-09-13T00:40:48.031Z,22.91
2022-09-13T00:43:16.044Z,22.90
2022-09-13T00:45:41.677Z,22.91
2022-09-13T00:48:07.279Z,22.90
2022-09-13T00:50:36.891Z,22.90
2022-09-13T00:53:19.073Z,22.91
2022-09-13T00:55:52.798Z,22.91
2022-09-13T00:58:20.630Z,22.89
2022-09-13T01:00:46.637Z,22.89
2022-09-13T01:03:12.750Z,22.90
2022-09-13T01:05:40.706Z,22.90
2022-09-13T01:08:11.831Z,22.90
2022-09-13T01:10:39.415Z,22.90
2022-09-13T01:13:12.279Z,22.90
2022-09-13T01:15:37.940Z,22.92
2022-09-13T01:18:03.486Z,22.89
2022-09-13T01:20:35.702Z,22.90
2022-09-13T01:23:07.006Z,22.90
2022-09-13T01:25:38.477Z,22.89
2022-09-13T01:28:23.911Z,22.90
2022-09-13T01:30:56.087Z,22.88
2022-09-13T01:33:32.020Z,22.89
2022-09-13T01:36:17.445Z,22.90
2022-09-13T01:39:02.895Z,22.88
2022-09-13T01:41:48.331Z,22.90
2022-09-13T01:44:33.761Z,22.88
2022-09-13T01:47:03.019Z,22.89
2022-09-13T01:49:31.573Z,22.89
2022-09-13T01:52:01.074Z,22.89
2022-09-13T01:54:31.560Z,22.88
2022-09-13T01:57:02.593Z,22.88
2022-09-13T01:59:37.164Z,22.90
2022-09-13T02:02:04.473Z,22.88
2022-09-13T02:04:35.885Z,22.87
2022-09-13T02:07:02.767Z,22.89
2022-09-13T02:09:29.575Z,22.87
2022-09-13T02:11:59.069Z,22.87
2022-09-13T02:14:26.824Z,22.88
2022-09-13T02:16:54.986Z,22.88
2022-09-13T02:19:37.491Z,22.88
2022-09-13T02:22:03.404Z,22.87
2022-09-13T02:24:30.318Z,22.88
2022-09-13T02:26:55.867Z,22.87
2022-09-13T02:29:23.699Z,22.87
2022-09-13T02:31:50.989Z,22.87
2022-09-13T02:34:18.042Z,22.87
2022-09-13T02:36:43.669Z,22.88
2022-09-13T02:39:11.784Z,22.86
2022-09-13T02:41:54.295Z,22.87
2022-09-13T02:44:22.987Z,22.88
2022-09-13T02:47:06.061Z,22.87
2022-09-13T02:49:33.888Z,22.86
2022-09-13T02:52:06.695Z,22.87
2022-09-13T02:54:37.268Z,22.87
2022-09-13T02:59:44.891Z,22.86
2022-09-13T03:02:12.065Z,22.85
2022-09-13T03:04:37.638Z,22.87
2022-09-13T03:07:04.164Z,22.86
2022-09-13T03:09:30.199Z,22.87
2022-09-13T03:15:00.100Z,22.86
2022-09-13T03:17:45.006Z,22.86
2022-09-13T03:20:11.753Z,22.86
2022-09-13T03:22:48.834Z,22.85
2022-09-13T03:28:07.784Z,22.85
2022-09-13T03:30:33.555Z,22.85
2022-09-13T03:33:17.715Z,22.86
2022-09-13T03:35:48.680Z,22.86
2022-09-13T03:38:15.941Z,22.85
2022-09-13T03:40:43.699Z,22.86
2022-09-13T03:43:12.398Z,22.85
2022-09-13T03:45:40.155Z,22.85
2022-09-13T03:48:05.721Z,22.84
2022-09-13T03:50:31.267Z,22.86
2022-09-13T03:52:58.583Z,22.85
2022-09-13T03:55:25.077Z,22.85
2022-09-13T03:57:50.608Z,22.86
2022-09-13T04:00:17.373Z,22.83
2022-09-13T04:02:42.906Z,22.85
2022-09-13T04:05:08.503Z,22.86
2022-09-13T04:07:34.040Z,22.84
2022-09-13T04:09:59.591Z,22.86
2022-09-13T04:12:26.255Z,22.84
2022-09-13T04:14:51.798Z,22.83
2022-09-13T04:17:17.543Z,22.86
2022-09-13T04:19:44.874Z,22.84
2022-09-13T04:22:10.531Z,22.85
2022-09-13T04:24:36.627Z,22.85
2022-09-13T04:27:02.279Z,22.85
2022-09-13T04:29:28.121Z,22.83
2022-09-13T04:31:53.950Z,22.85
2022-09-13T04:34:21.422Z,22.85
2022-09-13T04:36:46.976Z,22.84
2022-09-13T04:39:13.507Z,22.83
2022-09-13T04:41:40.535Z,22.84
2022-09-13T04:44:06.083Z,22.83
2022-09-13T04:46:31.619Z,22.83
2022-09-13T04:48:57.360Z,22.83
2022-09-13T04:51:22.903Z,22.84
2022-09-13T04:53:53.854Z,22.85
2022-09-13T04:56:19.397Z,22.63
2022-09-13T04:58:44.961Z,22.74
2022-09-13T05:01:10.609Z,22.79
2022-09-13T05:03:36.615Z,22.81
2022-09-13T05:06:03.181Z,22.82
2022-09-13T05:08:28.739Z,22.80
2022-09-13T05:10:54.513Z,22.82
2022-09-13T05:13:20.058Z,22.81
2022-09-13T05:15:46.024Z,22.84
2022-09-13T05:18:11.612Z,22.81
2022-09-13T05:20:37.158Z,22.81
2022-09-13T05:23:02.708Z,22.84
2022-09-13T05:25:28.247Z,22.82
2022-09-13T05:27:53.785Z,22.41
2022-09-13T05:30:19.322Z,22.29
2022-09-13T05:32:44.867Z,22.53
2022-09-13T05:35:10.415Z,22.68
2022-09-13T05:37:35.962Z,22.78
2022-09-13T05:40:17.298Z,22.68
2022-09-13T05:42:42.886Z,22.78
2022-09-13T05:45:08.591Z,22.86
2022-09-13T05:47:34.136Z,22.92
2022-09-13T05:50:10.347Z,22.95
2022-09-13T05:52:36.545Z,22.94
2022-09-13T05:55:02.155Z,22.95
2022-09-13T05:57:27.704Z,22.95
2022-09-13T05:59:53.242Z,22.96
2022-09-13T06:02:18.820Z,22.96
2022-09-13T06:04:45.040Z,22.95
2022-09-13T06:07:11.567Z,22.96
2022-09-13T06:09:37.101Z,22.93
2022-09-13T06:12:03.080Z,22.33
2022-09-13T06:14:28.622Z,22.56
2022-09-13T06:16:54.176Z,22.77
2022-09-13T06:19:19.915Z,22.84
2022-09-13T06:21:45.451Z,22.88
2022-09-13T06:24:10.994Z,22.90
2022-09-13T06:26:36.556Z,22.92
2022-09-13T06:29:02.091Z,22.93
2022-09-13T06:31:27.863Z,22.94
2022-09-13T06:33:56.568Z,22.94
2022-09-13T06:36:22.112Z,22.92
2022-09-13T06:38:48.151Z,22.93
2022-09-13T06:41:15.032Z,22.85
2022-09-13T06:43:41.015Z,22.94
2022-09-13T06:46:08.515Z,22.96
2022-09-13T06:48:34.571Z,22.96
2022-09-13T06:51:00.550Z,22.97
2022-09-13T06:53:28.043Z,22.98
2022-09-13T06:56:13.508Z,22.98
2022-09-13T06:58:39.879Z,22.98
2022-09-13T07:03:42.502Z,22.98
2022-09-13T07:06:08.643Z,22.99
2022-09-13T07:08:34.201Z,23.00
2022-09-13T07:10:59.747Z,23.02
2022-09-13T07:13:25.287Z,23.01
2022-09-13T07:15:50.864Z,23.02
2022-09-13T07:18:16.410Z,23.01
2022-09-13T07:20:41.959Z,23.02
2022-09-13T07:23:07.511Z,23.05
2022-09-13T07:25:33.068Z,22.88
2022-09-13T07:27:58.603Z,23.02
2022-09-13T07:30:25.910Z,23.04
2022-09-13T07:32:51.467Z,23.02
2022-09-13T07:35:17.005Z,23.03
2022-09-13T07:37:44.523Z,23.02
2022-09-13T07:40:10.303Z,23.04
2022-09-13T07:42:35.874Z,22.93
2022-09-13T07:45:01.409Z,23.03
2022-09-13T07:47:26.954Z,23.05
2022-09-13T07:49:52.495Z,23.04
2022-09-13T07:52:18.037Z,23.05
2022-09-13T07:54:43.581Z,23.04
2022-09-13T07:57:09.160Z,23.04
2022-09-13T07:59:34.706Z,23.07
2022-09-13T08:02:00.365Z,23.06
2022-09-13T08:04:25.981Z,23.09
2022-09-13T08:06:51.534Z,23.08
2022-09-13T08:09:17.071Z,23.08
2022-09-13T08:11:43.513Z,23.07
2022-09-13T08:14:10.120Z,23.14
2022-09-13T08:16:35.725Z,23.10
2022-09-13T08:19:01.908Z,23.00
2022-09-13T08:21:30.762Z,23.05
2022-09-13T08:23:58.922Z,23.08
2022-09-13T08:26:24.484Z,23.09
2022-09-13T08:28:54.308Z,23.11
2022-09-13T08:31:21.760Z,23.11
2022-09-13T08:33:48.547Z,23.14
2022-09-13T08:36:14.617Z,23.15
2022-09-13T08:38:47.552Z,23.12
2022-09-13T08:41:32.979Z,23.15
2022-09-13T08:43:59.667Z,23.13
2022-09-13T08:46:25.949Z,23.15
2022-09-13T08:48:52.327Z,23.13
2022-09-13T08:51:35.476Z,23.11
2022-09-13T08:54:02.398Z,23.14
2022-09-13T08:56:37.636Z,23.17
2022-09-13T08:59:23.111Z,23.15
2022-09-13T09:02:08.606Z,23.14
2022-09-13T09:04:37.765Z,23.17
2022-09-13T09:07:19.730Z,23.16
2022-09-13T09:09:48.710Z,23.18
2022-09-13T09:12:15.818Z,23.14
2022-09-13T09:14:43.523Z,23.15
2022-09-13T09:17:13.899Z,23.15
2022-09-13T09:19:40.095Z,23.16
2022-09-13T09:22:11.109Z,23.16
2022-09-13T09:24:36.691Z,23.15
2022-09-13T09:27:02.360Z,23.17
2022-09-13T09:29:28.982Z,23.19
2022-09-13T09:32:15.184Z,23.18
2022-09-13T09:34:50.559Z,23.19
2022-09-13T09:37:17.722Z,23.20
2022-09-13T09:39:43.915Z,23.21
2022-09-13T09:42:10.945Z,23.22
2022-09-13T09:44:37.145Z,23.22
2022-09-13T09:47:05.610Z,23.21
2022-09-13T09:50:06.674Z,23.23
2022-09-13T09:52:37.299Z,23.22
2022-09-13T09:55:10.320Z,23.22
2022-09-13T09:57:51.907Z,23.21
2022-09-13T10:00:17.825Z,23.22
2022-09-13T10:02:43.635Z,23.20
2022-09-13T10:05:09.250Z,23.22
2022-09-13T10:07:35.028Z,23.21
2022-09-13T10:10:08.316Z,23.22
2022-09-13T10:12:34.925Z,23.23
2022-09-13T10:15:04.912Z,23.21
2022-09-13T10:17:30.454Z,23.25
2022-09-13T10:20:01.148Z,23.22
2022-09-13T10:22:27.238Z,23.25
2022-09-13T10:24:53.280Z,23.26
2022-09-13T10:27:29.632Z,23.26
2022-09-13T10:29:58.759Z,23.26
2022-09-13T10:32:25.036Z,23.24
2022-09-13T10:34:50.659Z,23.26
2022-09-13T10:37:32.984Z,23.25
2022-09-13T10:40:00.697Z,23.25
2022-09-13T10:42:26.606Z,23.24
2022-09-13T10:44:54.627Z,23.26
2022-09-13T10:47:24.507Z,23.26
2022-09-13T10:49:52.080Z,23.25
2022-09-13T10:52:33.827Z,23.26
2022-09-13T10:55:15.292Z,23.27
2022-09-13T10:57:40.834Z,23.26
2022-09-13T11:00:08.720Z,23.26
2022-09-13T11:05:20.236Z,23.25
2022-09-13T11:07:49.955Z,23.25
2022-09-13T11:10:20.556Z,23.25
2022-09-13T11:12:50.139Z,23.25
2022-09-13T11:15:35.578Z,23.24
2022-09-13T11:18:12.527Z,23.25
2022-09-13T11:20:57.963Z,23.13
2022-09-13T11:23:43.396Z,23.23
2022-09-13T11:26:12.243Z,23.17
2022-09-13T11:28:56.652Z,23.23
2022-09-13T11:31:29.271Z,23.26
2022-09-13T11:34:07.001Z,23.27
2022-09-13T11:39:16.718Z,23.27
2022-09-13T11:41:48.278Z,23.27
2022-09-13T11:44:33.700Z,23.26
2022-09-13T11:47:19.131Z,23.27
2022-09-13T11:50:04.559Z,23.27
2022-09-13T11:52:36.936Z,23.29
2022-09-13T11:55:05.813Z,23.29
2022-09-13T11:57:33.523Z,23.28
2022-09-13T12:00:02.688Z,23.29
2022-09-13T12:02:31.800Z,23.28
2022-09-13T12:05:21.634Z,23.28
2022-09-13T12:07:50.883Z,23.28
2022-09-13T12:10:21.056Z,23.29
2022-09-13T12:12:49.139Z,23.29
2022-09-13T12:18:06.644Z,23.29
2022-09-13T12:20:33.696Z,23.31
2022-09-13T12:23:00.467Z,23.31
2022-09-13T12:25:27.840Z,23.31
2022-09-13T12:27:56.292Z,23.28
2022-09-13T12:30:22.697Z,23.28
2022-09-13T12:32:48.286Z,23.33
2022-09-13T12:35:33.720Z,23.32
2022-09-13T12:38:19.182Z,23.32
2022-09-13T12:41:02.760Z,23.31
2022-09-13T12:43:31.959Z,23.31
2022-09-13T12:46:17.452Z,23.32
2022-09-13T12:49:03.088Z,23.31
2022-09-13T12:51:48.799Z,23.33
2022-09-13T12:54:18.179Z,23.32
2022-09-13T12:56:47.409Z,23.34
2022-09-13T12:59:24.788Z,23.33
2022-09-13T13:01:51.334Z,23.33
2022-09-13T13:04:25.099Z,23.32
2022-09-13T13:06:58.516Z,23.33
2022-09-13T13:09:41.615Z,23.33
2022-09-13T13:12:09.219Z,23.34
2022-09-13T13:17:34.088Z,23.34
2022-09-13T13:19:59.708Z,23.36
2022-09-13T13:22:45.164Z,23.35
2022-09-13T13:25:30.615Z,23.40
2022-09-13T13:27:57.345Z,23.39
2022-09-13T13:33:15.165Z,23.34
2022-09-13T13:35:40.717Z,23.35
2022-09-13T13:38:14.245Z,23.35
2022-09-13T13:40:39.816Z,23.35
2022-09-13T13:43:25.254Z,23.32
2022-09-13T13:46:10.716Z,23.34
2022-09-13T13:48:37.193Z,23.34
2022-09-13T13:53:49.087Z,23.33
2022-09-13T13:56:23.932Z,23.36
2022-09-13T13:58:51.097Z,23.38
2022-09-13T14:01:21.233Z,23.34
2022-09-13T14:03:49.242Z,23.34
2022-09-13T14:06:15.733Z,23.33
2022-09-13T14:08:46.302Z,23.33
2022-09-13T14:11:15.630Z,23.34
2022-09-13T14:13:51.212Z,23.34
2022-09-13T14:16:20.171Z,23.33
2022-09-13T14:18:49.428Z,23.34
2022-09-13T14:21:19.460Z,23.34
2022-09-13T14:23:45.066Z,23.32
2022-09-13T14:26:10.661Z,23.34
2022-09-13T14:28:36.208Z,23.33
2022-09-13T14:31:01.752Z,23.31
2022-09-13T14:33:30.565Z,23.30
2022-09-13T14:36:16.216Z,23.31
2022-09-13T14:38:46.465Z,23.31
2022-09-13T14:41:15.924Z,23.32
2022-09-13T14:43:41.884Z,23.32
2022-09-13T14:46:10.063Z,23.36
2022-09-13T14:48:37.616Z,23.39
2022-09-13T14:51:04.549Z,23.38
2022-09-13T14:53:30.804Z,23.38
2022-09-13T14:55:58.895Z,23.37
2022-09-13T14:58:26.339Z,23.38
2022-09-13T15:00:55.079Z,23.37
2022-09-13T15:03:20.900Z,23.36
2022-09-13T15:05:50.706Z,23.37
2022-09-13T15:08:25.486Z,23.37
2022-09-13T15:10:51.120Z,23.37
2022-09-13T15:13:16.655Z,23.36
2022-09-13T15:15:42.710Z,23.35
2022-09-13T15:18:11.046Z,23.35
2022-09-13T15:20:58.063Z,23.35
2022-09-13T15:23:28.783Z,23.33
2022-09-13T15:25:55.786Z,23.34
2022-09-13T15:28:23.217Z,23.35
2022-09-13T15:30:48.800Z,23.33
2022-09-13T15:33:17.873Z,23.34
2022-09-13T15:35:44.215Z,23.33
2022-09-13T15:38:14.860Z,23.32
2022-09-13T15:40:41.689Z,23.32
2022-09-13T15:43:07.236Z,23.32
2022-09-13T15:45:32.793Z,23.32
2022-09-13T15:47:58.335Z,23.32
2022-09-13T15:50:26.312Z,23.33
2022-09-13T15:52:52.015Z,23.32
2022-09-13T15:55:17.560Z,23.31
2022-09-13T15:57:44.311Z,23.32
2022-09-13T16:00:13.870Z,23.32
2022-09-13T16:02:39.405Z,23.31
2022-09-13T16:05:06.387Z,23.31
2022-09-13T16:07:31.929Z,23.31
2022-09-13T16:09:57.849Z,23.30
2022-09-13T16:12:26.124Z,23.29
2022-09-13T16:14:51.666Z,23.30
2022-09-13T16:17:21.635Z,23.28
2022-09-13T16:19:47.180Z,23.27
2022-09-13T16:22:13.036Z,23.29
2022-09-13T16:24:38.660Z,23.29
2022-09-13T16:27:04.212Z,23.28
2022-09-13T16:29:29.800Z,23.28
2022-09-13T16:31:56.900Z,23.28
2022-09-13T16:34:22.668Z,23.29
2022-09-13T16:36:48.203Z,23.28
2022-09-13T16:39:13.741Z,23.29
2022-09-13T16:41:39.567Z,23.29
2022-09-13T16:44:05.284Z,23.28
2022-09-13T16:46:31.224Z,23.28
2022-09-13T16:48:56.838Z,23.28
2022-09-13T16:51:22.475Z,23.27
2022-09-13T16:53:48.593Z,23.28
2022-09-13T16:56:15.090Z,23.27
2022-09-13T16:58:41.501Z,23.28
2022-09-13T17:01:07.865Z,23.27
2022-09-13T17:03:35.260Z,23.27
2022-09-13T17:06:01.469Z,23.28
2022-09-13T17:08:27.139Z,23.27
2022-09-13T17:10:52.696Z,23.27
2022-09-13T17:13:18.261Z,23.27
2022-09-13T17:15:44.011Z,23.26
2022-09-13T17:18:09.734Z,23.27
2022-09-13T17:20:35.303Z,23.27
2022-09-13T17:23:00.847Z,23.27
2022-09-13T17:25:26.385Z,23.26
2022-09-13T17:27:51.967Z,23.26
2022-09-13T17:30:17.510Z,23.26
2022-09-13T17:32:43.044Z,23.27
2022-09-13T17:35:10.128Z,23.26
2022-09-13T17:37:35.671Z,23.26
2022-09-13T17:40:01.449Z,23.26
2022-09-13T17:42:27.056Z,23.26
2022-09-13T17:44:52.603Z,23.25
2022-09-13T17:47:18.230Z,23.26
2022-09-13T17:49:44.652Z,23.25
2022-09-13T17:52:10.424Z,23.25
2022-09-13T17:54:35.967Z,23.26
2022-09-13T17:57:01.548Z,23.24
2022-09-13T17:59:27.187Z,23.24
2022-09-13T18:01:53.275Z,23.24
2022-09-13T18:04:20.119Z,23.25
2022-09-13T18:06:45.867Z,23.24
2022-09-13T18:09:13.076Z,23.24
2022-09-13T18:11:38.707Z,23.25
2022-09-13T18:14:04.449Z,23.24
2022-09-13T18:16:30.541Z,23.25
2022-09-13T18:18:57.315Z,23.24
2022-09-13T18:21:23.724Z,23.24
2022-09-13T18:23:50.215Z,23.24
2022-09-13T18:26:16.580Z,23.23
2022-09-13T18:28:42.556Z,23.24
2022-09-13T18:31:09.311Z,23.24
2022-09-13T18:33:34.893Z,23.24
2022-09-13T18:36:01.307Z,23.24
2022-09-13T18:38:27.628Z,23.24
2022-09-13T18:41:01.435Z,23.23
2022-09-13T18:43:26.972Z,23.24
2022-09-13T18:45:53.479Z,23.23
2022-09-13T18:48:19.035Z,23.22
2022-09-13T18:50:44.592Z,23.23
2022-09-13T18:53:10.131Z,23.22
2022-09-13T18:55:39.770Z,23.22
2022-09-13T18:58:05.573Z,23.22
2022-09-13T19:00:31.620Z,23.21
2022-09-13T19:03:11.813Z,23.22
2022-09-13T19:05:39.192Z,23.22
2022-09-13T19:08:06.628Z,23.21
2022-09-13T19:10:32.202Z,23.21
2022-09-13T19:12:57.819Z,23.22
2022-09-13T19:15:23.363Z,23.22
2022-09-13T19:17:48.904Z,23.21
2022-09-13T19:20:14.449Z,23.21
2022-09-13T19:22:39.983Z,23.22
2022-09-13T19:25:05.618Z,23.21
2022-09-13T19:27:31.431Z,23.21
2022-09-13T19:29:57.040Z,23.21
2022-09-13T19:32:22.635Z,23.21
2022-09-13T19:34:48.188Z,23.20
2022-09-13T19:37:13.729Z,23.20
2022-09-13T19:39:39.275Z,23.20
2022-09-13T19:42:04.812Z,23.20
2022-09-13T19:44:30.435Z,23.20
2022-09-13T19:47:23.638Z,23.21
2022-09-13T19:49:41.518Z,23.19
2022-09-13T19:52:07.056Z,23.20
2022-09-13T19:54:32.607Z,23.19
2022-09-13T19:56:59.579Z,23.20
2022-09-13T19:59:25.134Z,23.19
2022-09-13T20:01:50.747Z,23.19
2022-09-13T20:04:17.762Z,23.18
2022-09-13T20:06:44.159Z,23.19
2022-09-13T20:09:10.007Z,23.19
2022-09-13T20:11:40.046Z,23.18
2022-09-13T20:14:07.872Z,23.19
2022-09-13T20:16:34.160Z,23.18
2022-09-13T20:18:59.792Z,23.19
2022-09-13T20:21:25.807Z,23.18
2022-09-13T20:23:53.224Z,23.18
2022-09-13T20:26:19.855Z,23.18
2022-09-13T20:28:46.413Z,23.18
2022-09-13T20:31:12.118Z,23.18
2022-09-13T20:33:39.160Z,23.18
2022-09-13T20:36:05.663Z,23.17
2022-09-13T20:38:31.199Z,23.17
2022-09-13T20:41:04.904Z,23.17
2022-09-13T20:43:31.062Z,23.17
2022-09-13T20:45:57.348Z,23.17
2022-09-13T20:48:23.931Z,23.17
2022-09-13T20:51:05.916Z,23.16
2022-09-13T20:53:32.091Z,23.17
2022-09-13T20:56:05.236Z,23.16
2022-09-13T20:58:30.871Z,23.16
2022-09-13T21:01:01.099Z,23.16
2022-09-13T21:03:26.692Z,23.15
2022-09-13T21:05:52.247Z,23.15
2022-09-13T21:08:37.691Z,23.16
2022-09-13T21:11:03.458Z,23.16
2022-09-13T21:13:29.701Z,23.17
2022-09-13T21:15:55.248Z,23.15
2022-09-13T21:18:20.786Z,23.15
2022-09-13T21:20:54.130Z,23.16
2022-09-13T21:23:19.668Z,23.15
2022-09-13T21:25:45.266Z,23.15
2022-09-13T21:28:10.808Z,23.14
2022-09-13T21:30:36.382Z,23.15
2022-09-13T21:33:01.953Z,23.15
2022-09-13T21:35:28.188Z,23.15
2022-09-13T21:37:53.723Z,23.14
2022-09-13T21:40:19.428Z,23.14
2022-09-13T21:42:44.989Z,23.15
2022-09-13T21:45:10.532Z,23.13
2022-09-13T21:47:36.068Z,23.15
2022-09-13T21:50:01.914Z,23.14
2022-09-13T21:52:27.501Z,23.14
2022-09-13T21:54:53.047Z,23.13
2022-09-13T21:57:19.883Z,23.14
2022-09-13T21:59:45.437Z,23.13
2022-09-13T22:02:11.428Z,23.14
2022-09-13T22:04:38.948Z,23.14
2022-09-13T22:07:04.535Z,23.13
2022-09-13T22:09:30.085Z,23.13
2022-09-13T22:11:55.827Z,23.12
2022-09-13T22:14:21.607Z,23.14
2022-09-13T22:16:47.674Z,23.12
2022-09-13T22:19:15.899Z,23.13
2022-09-13T22:21:42.420Z,23.14
2022-09-13T22:24:08.494Z,23.13
2022-09-13T22:26:35.152Z,23.13
2022-09-13T22:29:00.701Z,23.13
2022-09-13T22:31:27.125Z,23.12
2022-09-13T22:33:53.845Z,23.12
2022-09-13T22:36:19.375Z,23.13
2022-09-13T22:38:45.334Z,23.13
2022-09-13T22:41:12.069Z,23.12
2022-09-13T22:43:37.682Z,23.12
2022-09-13T22:46:04.494Z,23.12
2022-09-13T22:48:30.072Z,23.12
2022-09-13T22:50:55.622Z,23.12
2022-09-13T22:53:21.497Z,23.11
2022-09-13T22:55:47.047Z,23.12
2022-09-13T22:58:12.846Z,23.12
2022-09-13T23:00:38.512Z,23.12
2022-09-13T23:03:04.049Z,23.12
2022-09-13T23:05:29.598Z,23.11
2022-09-13T23:07:55.137Z,23.11
2022-09-13T23:10:20.688Z,23.11
2022-09-13T23:12:46.233Z,23.10
2022-09-13T23:15:11.958Z,23.10
2022-09-13T23:17:37.628Z,23.10
2022-09-13T23:20:03.237Z,23.10
2022-09-13T23:22:28.775Z,23.09
2022-09-13T23:24:54.322Z,23.10
2022-09-13T23:27:21.866Z,23.09
2022-09-13T23:29:48.565Z,23.10
2022-09-13T23:32:16.862Z,23.11
2022-09-13T23:34:42.420Z,23.10
2022-09-13T23:37:07.952Z,23.10
2022-09-13T23:39:33.518Z,23.09
2022-09-13T23:41:59.078Z,23.09
2022-09-13T23:44:24.673Z,23.10
2022-09-13T23:46:50.265Z,23.10
2022-09-13T23:49:15.905Z,23.09
2022-09-13T23:51:41.460Z,23.09
2022-09-13T23:54:07.123Z,23.09
2022-09-13T23:56:32.863Z,23.09
2022-09-13T23:58:59.320Z,23.09
